Afton, California
Current Conditions -  °F | °C
As of 3:53 PM on Tuesday 25 Nov 2014 (Local Time) from KOVE Reporting Station
Clear Clear  
Wind Chill: 17°   Ceiling: Unl
Heat Index: 17°   Visibility: 10mi
Dew Point:   Wind: 3mph
Humidity: 50%   Direction: 280°W
Pressure: 30.4"   Gusts: NA
Location:  39.4608°N, 121.937°W
Report Text: KOVE 252353Z AUTO 28003KT 10SM CLR 17/06 A3040 RMK AO2 SLP297 T01670061 10167 20128 56013
Loading
Personal Weather Stations






























Interactive Weather Map New forecast layout! Learn more

10-Day Weather Forecast

Advertisements
Track Severe Weather on mobile